sensor_id;sensor_type;location;lat;lon;timestamp;temperature;humidity
69418;DHT22;56610;48.872;2.400;2023-10-13T00:00:38;23.50;99.90
69418;DHT22;56610;48.872;2.400;2023-10-13T00:03:08;23.60;99.90
69418;DHT22;56610;48.872;2.400;2023-10-13T00:05:40;23.60;99.90
69418;DHT22;56610;48.872;2.400;2023-10-13T00:08:08;23.80;99.90
69418;DHT22;56610;48.872;2.400;2023-10-13T00:10:33;23.60;99.90
69418;DHT22;56610;48.872;2.400;2023-10-13T00:12:59;23.70;99.90
69418;DHT22;56610;48.872;2.400;2023-10-13T00:15:43;23.70;99.90
69418;DHT22;56610;48.872;2.400;2023-10-13T00:18:21;23.70;99.90
69418;DHT22;56610;48.872;2.400;2023-10-13T00:20:47;23.90;99.90
69418;DHT22;56610;48.872;2.400;2023-10-13T00:23:14;23.80;99.90
69418;DHT22;56610;48.872;2.400;2023-10-13T00:25:41;23.80;99.90
69418;DHT22;56610;48.872;2.400;2023-10-13T00:28:17;23.70;99.90
69418;DHT22;56610;48.872;2.400;2023-10-13T00:30:49;23.70;99.90
69418;DHT22;56610;48.872;2.400;2023-10-13T00:33:17;23.70;99.90
69418;DHT22;56610;48.872;2.400;2023-10-13T00:35:45;23.70;99.90
69418;DHT22;56610;48.872;2.400;2023-10-13T00:38:13;23.80;99.90
69418;DHT22;56610;48.872;2.400;2023-10-13T00:40:42;23.60;99.90
69418;DHT22;56610;48.872;2.400;2023-10-13T00:43:16;23.70;99.90
69418;DHT22;56610;48.872;2.400;2023-10-13T00:50:59;23.60;99.90
69418;DHT22;56610;48.872;2.400;2023-10-13T00:53:28;23.50;99.90
69418;DHT22;56610;48.872;2.400;2023-10-13T00:55:54;23.50;99.90
69418;DHT22;56610;48.872;2.400;2023-10-13T00:58:23;23.50;99.90
69418;DHT22;56610;48.872;2.400;2023-10-13T01:00:50;23.50;99.90
69418;DHT22;56610;48.872;2.400;2023-10-13T01:03:23;23.50;99.90
69418;DHT22;56610;48.872;2.400;2023-10-13T01:05:51;23.50;99.90
69418;DHT22;56610;48.872;2.400;2023-10-13T01:08:30;23.50;99.90
69418;DHT22;56610;48.872;2.400;2023-10-13T01:10:58;23.50;99.90
69418;DHT22;56610;48.872;2.400;2023-10-13T01:13:23;23.60;99.90
69418;DHT22;56610;48.872;2.400;2023-10-13T01:15:49;23.50;99.90
69418;DHT22;56610;48.872;2.400;2023-10-13T01:18:15;23.50;99.90
69418;DHT22;56610;48.872;2.400;2023-10-13T01:20:42;23.40;99.90
69418;DHT22;56610;48.872;2.400;2023-10-13T01:23:27;23.40;99.90
69418;DHT22;56610;48.872;2.400;2023-10-13T01:25:54;23.50;99.90
69418;DHT22;56610;48.872;2.400;2023-10-13T01:28:22;23.50;99.90
69418;DHT22;56610;48.872;2.400;2023-10-13T01:30:47;23.50;99.90
69418;DHT22;56610;48.872;2.400;2023-10-13T01:33:18;23.30;99.90
69418;DHT22;56610;48.872;2.400;2023-10-13T01:35:54;23.40;99.90
69418;DHT22;56610;48.872;2.400;2023-10-13T01:38:22;23.30;99.90
69418;DHT22;56610;48.872;2.400;2023-10-13T01:40:47;23.30;99.90
69418;DHT22;56610;48.872;2.400;2023-10-13T01:43:16;23.40;99.90
69418;DHT22;56610;48.872;2.400;2023-10-13T01:45:43;23.30;99.90
69418;DHT22;56610;48.872;2.400;2023-10-13T01:48:17;23.30;99.90
69418;DHT22;56610;48.872;2.400;2023-10-13T01:50:46;23.20;99.90
69418;DHT22;56610;48.872;2.400;2023-10-13T01:53:23;23.20;99.90
69418;DHT22;56610;48.872;2.400;2023-10-13T01:55:49;23.20;99.90
69418;DHT22;56610;48.872;2.400;2023-10-13T01:58:15;23.20;99.90
69418;DHT22;56610;48.872;2.400;2023-10-13T02:00:44;23.30;99.90
69418;DHT22;56610;48.872;2.400;2023-10-13T02:03:11;23.20;99.90
69418;DHT22;56610;48.872;2.400;2023-10-13T02:05:46;23.30;99.90
69418;DHT22;56610;48.872;2.400;2023-10-13T02:08:13;23.20;99.90
69418;DHT22;56610;48.872;2.400;2023-10-13T02:10:48;23.30;99.90
69418;DHT22;56610;48.872;2.400;2023-10-13T02:13:14;23.30;99.90
69418;DHT22;56610;48.872;2.400;2023-10-13T02:15:46;23.40;99.90
69418;DHT22;56610;48.872;2.400;2023-10-13T02:18:15;23.40;99.90
69418;DHT22;56610;48.872;2.400;2023-10-13T02:21:01;23.30;99.90
69418;DHT22;56610;48.872;2.400;2023-10-13T02:23:30;23.40;99.90
69418;DHT22;56610;48.872;2.400;2023-10-13T02:25:56;23.30;99.90
69418;DHT22;56610;48.872;2.400;2023-10-13T02:28:37;23.40;99.90
69418;DHT22;56610;48.872;2.400;2023-10-13T02:31:04;23.30;99.90
69418;DHT22;56610;48.872;2.400;2023-10-13T02:33:29;23.20;99.90
69418;DHT22;56610;48.872;2.400;2023-10-13T02:35:59;23.20;99.90
69418;DHT22;56610;48.872;2.400;2023-10-13T02:38:26;23.20;99.90
69418;DHT22;56610;48.872;2.400;2023-10-13T02:41:11;23.30;99.90
69418;DHT22;56610;48.872;2.400;2023-10-13T02:43:37;23.30;99.90
69418;DHT22;56610;48.872;2.400;2023-10-13T02:46:03;23.30;99.90
69418;DHT22;56610;48.872;2.400;2023-10-13T02:48:29;23.40;99.90
69418;DHT22;56610;48.872;2.400;2023-10-13T02:51:11;23.40;99.90
69418;DHT22;56610;48.872;2.400;2023-10-13T02:53:46;23.30;99.90
69418;DHT22;56610;48.872;2.400;2023-10-13T02:56:15;23.20;99.90
69418;DHT22;56610;48.872;2.400;2023-10-13T02:58:49;23.40;99.90
69418;DHT22;56610;48.872;2.400;2023-10-13T03:04:22;23.40;99.90
69418;DHT22;56610;48.872;2.400;2023-10-13T03:06:51;23.30;99.90
69418;DHT22;56610;48.872;2.400;2023-10-13T03:09:16;23.20;99.90
69418;DHT22;56610;48.872;2.400;2023-10-13T03:11:50;23.30;99.90
69418;DHT22;56610;48.872;2.400;2023-10-13T03:14:22;23.30;99.90
69418;DHT22;56610;48.872;2.400;2023-10-13T03:17:00;23.30;99.90
69418;DHT22;56610;48.872;2.400;2023-10-13T03:19:32;23.20;99.90
69418;DHT22;56610;48.872;2.400;2023-10-13T03:22:02;23.30;99.90
69418;DHT22;56610;48.872;2.400;2023-10-13T03:24:35;23.20;99.90
69418;DHT22;56610;48.872;2.400;2023-10-13T03:27:01;23.30;99.90
69418;DHT22;56610;48.872;2.400;2023-10-13T03:29:40;23.40;99.90
69418;DHT22;56610;48.872;2.400;2023-10-13T03:32:09;23.40;99.90
69418;DHT22;56610;48.872;2.400;2023-10-13T03:34:44;23.40;99.90
69418;DHT22;56610;48.872;2.400;2023-10-13T03:37:25;23.30;99.90
69418;DHT22;56610;48.872;2.400;2023-10-13T03:42:32;23.20;99.90
69418;DHT22;56610;48.872;2.400;2023-10-13T03:44:57;23.20;99.90
69418;DHT22;56610;48.872;2.400;2023-10-13T03:47:23;23.20;99.90
69418;DHT22;56610;48.872;2.400;2023-10-13T03:49:52;23.10;99.90
69418;DHT22;56610;48.872;2.400;2023-10-13T03:52:38;23.20;99.90
69418;DHT22;56610;48.872;2.400;2023-10-13T03:55:04;23.10;99.90
69418;DHT22;56610;48.872;2.400;2023-10-13T03:57:31;23.20;99.90
69418;DHT22;56610;48.872;2.400;2023-10-13T04:00:03;23.10;99.90
69418;DHT22;56610;48.872;2.400;2023-10-13T04:02:34;23.10;99.90
69418;DHT22;56610;48.872;2.400;2023-10-13T04:05:02;23.10;99.90
69418;DHT22;56610;48.872;2.400;2023-10-13T04:07:33;23.00;99.90
69418;DHT22;56610;48.872;2.400;2023-10-13T04:10:02;23.10;99.90
69418;DHT22;56610;48.872;2.400;2023-10-13T04:12:46;23.00;99.90
69418;DHT22;56610;48.872;2.400;2023-10-13T04:15:30;23.00;99.90
69418;DHT22;56610;48.872;2.400;2023-10-13T04:18:07;22.90;99.90
69418;DHT22;56610;48.872;2.400;2023-10-13T04:20:53;23.00;99.90
69418;DHT22;56610;48.872;2.400;2023-10-13T04:23:29;23.00;99.90
69418;DHT22;56610;48.872;2.400;2023-10-13T04:26:14;23.00;99.90
69418;DHT22;56610;48.872;2.400;2023-10-13T04:28:47;23.00;99.90
69418;DHT22;56610;48.872;2.400;2023-10-13T04:31:18;23.00;99.90
69418;DHT22;56610;48.872;2.400;2023-10-13T04:34:02;23.00;99.90
69418;DHT22;56610;48.872;2.400;2023-10-13T04:36:28;22.80;99.90
69418;DHT22;56610;48.872;2.400;2023-10-13T04:38:54;22.90;99.90
69418;DHT22;56610;48.872;2.400;2023-10-13T04:41:26;22.90;99.90
69418;DHT22;56610;48.872;2.400;2023-10-13T04:43:59;23.00;99.90
69418;DHT22;56610;48.872;2.400;2023-10-13T04:46:51;22.80;99.90
69418;DHT22;56610;48.872;2.400;2023-10-13T04:49:20;22.90;99.90
69418;DHT22;56610;48.872;2.400;2023-10-13T04:51:57;22.90;99.90
69418;DHT22;56610;48.872;2.400;2023-10-13T04:57:19;22.90;99.90
69418;DHT22;56610;48.872;2.400;2023-10-13T04:59:47;22.80;99.90
69418;DHT22;56610;48.872;2.400;2023-10-13T05:02:31;22.90;99.90
69418;DHT22;56610;48.872;2.400;2023-10-13T05:05:09;22.80;99.90
69418;DHT22;56610;48.872;2.400;2023-10-13T05:07:44;22.80;99.90
69418;DHT22;56610;48.872;2.400;2023-10-13T05:10:28;22.70;99.90
69418;DHT22;56610;48.872;2.400;2023-10-13T05:13:12;22.80;99.90
69418;DHT22;56610;48.872;2.400;2023-10-13T05:15:57;22.70;99.90
69418;DHT22;56610;48.872;2.400;2023-10-13T05:18:41;22.90;99.90
69418;DHT22;56610;48.872;2.400;2023-10-13T05:21:25;22.70;99.90
69418;DHT22;56610;48.872;2.400;2023-10-13T05:24:09;22.80;99.90
69418;DHT22;56610;48.872;2.400;2023-10-13T05:26:54;22.70;99.90
69418;DHT22;56610;48.872;2.400;2023-10-13T05:29:38;22.80;99.90
69418;DHT22;56610;48.872;2.400;2023-10-13T05:32:22;22.80;99.90
69418;DHT22;56610;48.872;2.400;2023-10-13T05:35:06;22.90;99.90
69418;DHT22;56610;48.872;2.400;2023-10-13T05:37:51;22.90;99.90
69418;DHT22;56610;48.872;2.400;2023-10-13T05:40:35;22.90;99.90
69418;DHT22;56610;48.872;2.400;2023-10-13T05:43:19;23.00;99.90
69418;DHT22;56610;48.872;2.400;2023-10-13T05:46:03;22.90;99.90
69418;DHT22;56610;48.872;2.400;2023-10-13T05:48:48;22.90;99.90
69418;DHT22;56610;48.872;2.400;2023-10-13T05:51:24;22.90;99.90
69418;DHT22;56610;48.872;2.400;2023-10-13T05:54:09;22.90;99.90
69418;DHT22;56610;48.872;2.400;2023-10-13T05:59:25;22.70;99.90
69418;DHT22;56610;48.872;2.400;2023-10-13T06:02:10;22.60;99.90
69418;DHT22;56610;48.872;2.400;2023-10-13T06:04:54;22.70;99.90
69418;DHT22;56610;48.872;2.400;2023-10-13T06:07:38;22.50;99.90
69418;DHT22;56610;48.872;2.400;2023-10-13T06:10:22;22.50;99.90
69418;DHT22;56610;48.872;2.400;2023-10-13T06:13:07;22.40;99.90
69418;DHT22;56610;48.872;2.400;2023-10-13T06:15:51;22.50;99.90
69418;DHT22;56610;48.872;2.400;2023-10-13T06:18:35;22.40;99.90
69418;DHT22;56610;48.872;2.400;2023-10-13T06:21:20;22.60;99.90
69418;DHT22;56610;48.872;2.400;2023-10-13T06:24:04;22.40;99.90
69418;DHT22;56610;48.872;2.400;2023-10-13T06:26:48;22.20;99.90
69418;DHT22;56610;48.872;2.400;2023-10-13T06:29:32;22.00;99.90
69418;DHT22;56610;48.872;2.400;2023-10-13T06:31:58;22.10;99.90
69418;DHT22;56610;48.872;2.400;2023-10-13T06:34:30;21.90;99.90
69418;DHT22;56610;48.872;2.400;2023-10-13T06:37:11;22.00;99.90
69418;DHT22;56610;48.872;2.400;2023-10-13T06:39:52;22.00;99.90
69418;DHT22;56610;48.872;2.400;2023-10-13T06:42:27;22.10;99.90
69418;DHT22;56610;48.872;2.400;2023-10-13T06:44:53;22.10;99.90
69418;DHT22;56610;48.872;2.400;2023-10-13T06:47:20;22.00;99.90
69418;DHT22;56610;48.872;2.400;2023-10-13T06:49:46;21.90;99.90
69418;DHT22;56610;48.872;2.400;2023-10-13T06:52:14;21.80;99.90
69418;DHT22;56610;48.872;2.400;2023-10-13T06:54:41;22.00;99.90
69418;DHT22;56610;48.872;2.400;2023-10-13T06:57:08;21.90;99.90
69418;DHT22;56610;48.872;2.400;2023-10-13T06:59:40;22.00;99.90
69418;DHT22;56610;48.872;2.400;2023-10-13T07:02:06;22.00;99.90
69418;DHT22;56610;48.872;2.400;2023-10-13T07:04:35;22.00;99.90
69418;DHT22;56610;48.872;2.400;2023-10-13T07:07:07;21.90;99.90
69418;DHT22;56610;48.872;2.400;2023-10-13T07:09:36;22.00;99.90
69418;DHT22;56610;48.872;2.400;2023-10-13T07:12:14;22.00;99.90
69418;DHT22;56610;48.872;2.400;2023-10-13T07:14:48;22.00;99.90
69418;DHT22;56610;48.872;2.400;2023-10-13T07:17:17;22.10;99.90
69418;DHT22;56610;48.872;2.400;2023-10-13T07:19:50;21.90;99.90
69418;DHT22;56610;48.872;2.400;2023-10-13T07:22:19;22.00;99.90
69418;DHT22;56610;48.872;2.400;2023-10-13T07:24:48;21.90;99.90
69418;DHT22;56610;48.872;2.400;2023-10-13T07:27:20;22.00;99.90
69418;DHT22;56610;48.872;2.400;2023-10-13T07:29:53;21.90;99.90
69418;DHT22;56610;48.872;2.400;2023-10-13T07:32:31;22.10;99.90
69418;DHT22;56610;48.872;2.400;2023-10-13T07:34:59;22.10;99.90
69418;DHT22;56610;48.872;2.400;2023-10-13T07:37:35;22.20;99.90
69418;DHT22;56610;48.872;2.400;2023-10-13T07:40:00;22.30;99.90
69418;DHT22;56610;48.872;2.400;2023-10-13T07:42:26;22.30;99.90
69418;DHT22;56610;48.872;2.400;2023-10-13T07:45:05;22.50;99.90
69418;DHT22;56610;48.872;2.400;2023-10-13T07:47:30;22.40;99.90
69418;DHT22;56610;48.872;2.400;2023-10-13T07:49:58;22.60;99.90
69418;DHT22;56610;48.872;2.400;2023-10-13T07:52:24;22.50;99.90
69418;DHT22;56610;48.872;2.400;2023-10-13T07:55:01;22.60;99.90
69418;DHT22;56610;48.872;2.400;2023-10-13T07:57:46;22.40;99.90
69418;DHT22;56610;48.872;2.400;2023-10-13T08:00:19;22.50;99.90
69418;DHT22;56610;48.872;2.400;2023-10-13T08:02:58;22.40;99.90
69418;DHT22;56610;48.872;2.400;2023-10-13T08:05:34;22.40;99.90
69418;DHT22;56610;48.872;2.400;2023-10-13T08:08:19;22.60;99.90
69418;DHT22;56610;48.872;2.400;2023-10-13T08:10:44;22.50;99.90
69418;DHT22;56610;48.872;2.400;2023-10-13T08:13:10;22.70;99.90
69418;DHT22;56610;48.872;2.400;2023-10-13T08:15:41;22.60;99.90
69418;DHT22;56610;48.872;2.400;2023-10-13T08:18:12;22.70;99.90
69418;DHT22;56610;48.872;2.400;2023-10-13T08:20:58;22.80;99.90
69418;DHT22;56610;48.872;2.400;2023-10-13T08:23:28;23.00;99.90
69418;DHT22;56610;48.872;2.400;2023-10-13T08:26:23;23.00;99.90
69418;DHT22;56610;48.872;2.400;2023-10-13T08:29:01;23.20;99.90
69418;DHT22;56610;48.872;2.400;2023-10-13T08:31:50;23.20;99.90
69418;DHT22;56610;48.872;2.400;2023-10-13T08:34:35;23.30;99.90
69418;DHT22;56610;48.872;2.400;2023-10-13T08:37:10;23.20;99.90
69418;DHT22;56610;48.872;2.400;2023-10-13T08:39:57;23.30;99.90
69418;DHT22;56610;48.872;2.400;2023-10-13T08:42:33;23.40;99.90
69418;DHT22;56610;48.872;2.400;2023-10-13T08:45:11;23.40;99.90
69418;DHT22;56610;48.872;2.400;2023-10-13T08:47:47;23.50;99.90
69418;DHT22;56610;48.872;2.400;2023-10-13T08:50:22;23.40;99.90
69418;DHT22;56610;48.872;2.400;2023-10-13T08:53:14;23.60;99.90
69418;DHT22;56610;48.872;2.400;2023-10-13T08:56:03;23.60;99.90
69418;DHT22;56610;48.872;2.400;2023-10-13T08:58:29;23.70;99.90
69418;DHT22;56610;48.872;2.400;2023-10-13T09:01:14;23.70;99.90
69418;DHT22;56610;48.872;2.400;2023-10-13T09:04:10;23.70;99.90
69418;DHT22;56610;48.872;2.400;2023-10-13T09:07:00;23.70;99.90
69418;DHT22;56610;48.872;2.400;2023-10-13T09:09:44;23.70;99.90
69418;DHT22;56610;48.872;2.400;2023-10-13T09:12:53;23.70;99.90
69418;DHT22;56610;48.872;2.400;2023-10-13T09:15:28;23.80;99.90
69418;DHT22;56610;48.872;2.400;2023-10-13T09:18:22;23.90;99.90
69418;DHT22;56610;48.872;2.400;2023-10-13T09:21:03;24.00;99.90
69418;DHT22;56610;48.872;2.400;2023-10-13T09:23:48;24.10;99.90
69418;DHT22;56610;48.872;2.400;2023-10-13T09:26:14;24.10;99.90
69418;DHT22;56610;48.872;2.400;2023-10-13T09:28:42;24.10;99.90
69418;DHT22;56610;48.872;2.400;2023-10-13T09:31:08;24.10;99.90
69418;DHT22;56610;48.872;2.400;2023-10-13T09:33:35;24.30;99.90
69418;DHT22;56610;48.872;2.400;2023-10-13T09:36:12;24.20;99.90
69418;DHT22;56610;48.872;2.400;2023-10-13T09:38:39;24.40;99.90
69418;DHT22;56610;48.872;2.400;2023-10-13T09:41:13;24.40;99.90
69418;DHT22;56610;48.872;2.400;2023-10-13T09:43:51;24.60;99.90
69418;DHT22;56610;48.872;2.400;2023-10-13T09:46:20;24.40;99.90
69418;DHT22;56610;48.872;2.400;2023-10-13T09:48:54;24.50;99.90
69418;DHT22;56610;48.872;2.400;2023-10-13T09:51:33;24.40;99.90
69418;DHT22;56610;48.872;2.400;2023-10-13T09:54:18;24.30;99.90
69418;DHT22;56610;48.872;2.400;2023-10-13T09:56:46;24.40;99.90
69418;DHT22;56610;48.872;2.400;2023-10-13T09:59:19;24.50;99.90
69418;DHT22;56610;48.872;2.400;2023-10-13T10:01:45;24.80;99.90
69418;DHT22;56610;48.872;2.400;2023-10-13T10:04:18;24.80;99.90
69418;DHT22;56610;48.872;2.400;2023-10-13T10:06:54;24.90;99.90
69418;DHT22;56610;48.872;2.400;2023-10-13T10:09:25;24.90;99.90
69418;DHT22;56610;48.872;2.400;2023-10-13T10:17:16;24.90;99.90
69418;DHT22;56610;48.872;2.400;2023-10-13T10:19:46;25.10;99.90
69418;DHT22;56610;48.872;2.400;2023-10-13T10:22:12;25.00;99.90
69418;DHT22;56610;48.872;2.400;2023-10-13T10:24:55;25.10;99.90
69418;DHT22;56610;48.872;2.400;2023-10-13T10:27:25;25.10;99.90
69418;DHT22;56610;48.872;2.400;2023-10-13T10:29:53;25.10;99.90
69418;DHT22;56610;48.872;2.400;2023-10-13T10:32:19;25.30;99.90
69418;DHT22;56610;48.872;2.400;2023-10-13T10:34:45;25.40;99.90
69418;DHT22;56610;48.872;2.400;2023-10-13T10:37:10;25.70;99.90
69418;DHT22;56610;48.872;2.400;2023-10-13T10:39:37;25.70;99.90
69418;DHT22;56610;48.872;2.400;2023-10-13T10:42:12;25.80;99.90
69418;DHT22;56610;48.872;2.400;2023-10-13T10:44:42;25.90;99.90
69418;DHT22;56610;48.872;2.400;2023-10-13T10:47:15;25.90;99.90
69418;DHT22;56610;48.872;2.400;2023-10-13T10:49:59;25.70;99.90
69418;DHT22;56610;48.872;2.400;2023-10-13T10:52:44;25.70;99.90
69418;DHT22;56610;48.872;2.400;2023-10-13T10:55:12;26.10;99.90
69418;DHT22;56610;48.872;2.400;2023-10-13T10:57:39;26.20;99.90
69418;DHT22;56610;48.872;2.400;2023-10-13T11:00:29;26.40;99.90
69418;DHT22;56610;48.872;2.400;2023-10-13T11:03:08;26.60;99.90
69418;DHT22;56610;48.872;2.400;2023-10-13T11:05:45;26.70;99.90
69418;DHT22;56610;48.872;2.400;2023-10-13T11:08:21;26.90;99.90
69418;DHT22;56610;48.872;2.400;2023-10-13T11:10:53;26.80;99.90
69418;DHT22;56610;48.872;2.400;2023-10-13T11:13:18;27.00;99.90
69418;DHT22;56610;48.872;2.400;2023-10-13T11:15:47;27.00;99.90
69418;DHT22;56610;48.872;2.400;2023-10-13T11:18:14;27.00;99.90
69418;DHT22;56610;48.872;2.400;2023-10-13T11:20:46;27.30;99.90
69418;DHT22;56610;48.872;2.400;2023-10-13T11:23:15;27.60;99.90
69418;DHT22;56610;48.872;2.400;2023-10-13T11:25:41;28.00;99.90
69418;DHT22;56610;48.872;2.400;2023-10-13T11:28:19;28.10;99.70
69418;DHT22;56610;48.872;2.400;2023-10-13T11:30:53;28.10;99.90
69418;DHT22;56610;48.872;2.400;2023-10-13T11:33:21;28.20;99.30
69418;DHT22;56610;48.872;2.400;2023-10-13T11:35:51;28.30;99.50
69418;DHT22;56610;48.872;2.400;2023-10-13T11:40:58;28.60;99.50
69418;DHT22;56610;48.872;2.400;2023-10-13T11:43:36;28.60;99.20
69418;DHT22;56610;48.872;2.400;2023-10-13T11:46:08;28.60;99.10
69418;DHT22;56610;48.872;2.400;2023-10-13T11:48:33;28.60;98.90
69418;DHT22;56610;48.872;2.400;2023-10-13T11:51:03;28.50;98.90
69418;DHT22;56610;48.872;2.400;2023-10-13T11:53:37;28.30;99.00
69418;DHT22;56610;48.872;2.400;2023-10-13T11:56:03;28.00;99.20
69418;DHT22;56610;48.872;2.400;2023-10-13T11:58:35;27.90;99.30
69418;DHT22;56610;48.872;2.400;2023-10-13T12:01:01;27.60;99.50
69418;DHT22;56610;48.872;2.400;2023-10-13T12:03:41;27.60;99.90
69418;DHT22;56610;48.872;2.400;2023-10-13T12:06:26;27.50;99.80
69418;DHT22;56610;48.872;2.400;2023-10-13T12:09:09;27.30;99.90
69418;DHT22;56610;48.872;2.400;2023-10-13T12:11:48;27.30;99.90
69418;DHT22;56610;48.872;2.400;2023-10-13T12:14:16;27.10;99.90
69418;DHT22;56610;48.872;2.400;2023-10-13T12:16:48;27.00;99.90
69418;DHT22;56610;48.872;2.400;2023-10-13T12:19:17;26.90;99.90
69418;DHT22;56610;48.872;2.400;2023-10-13T12:21:43;26.80;99.90
69418;DHT22;56610;48.872;2.400;2023-10-13T12:24:09;27.10;99.90
69418;DHT22;56610;48.872;2.400;2023-10-13T12:26:48;27.10;99.90
69418;DHT22;56610;48.872;2.400;2023-10-13T12:29:13;27.20;99.90
69418;DHT22;56610;48.872;2.400;2023-10-13T12:31:48;27.20;99.90
69418;DHT22;56610;48.872;2.400;2023-10-13T12:34:26;27.00;99.90
69418;DHT22;56610;48.872;2.400;2023-10-13T12:37:12;27.00;99.90
69418;DHT22;56610;48.872;2.400;2023-10-13T12:39:57;27.00;99.90
69418;DHT22;56610;48.872;2.400;2023-10-13T12:42:41;26.80;99.90
69418;DHT22;56610;48.872;2.400;2023-10-13T12:45:25;26.70;99.90
69418;DHT22;56610;48.872;2.400;2023-10-13T12:48:23;26.60;99.90
69418;DHT22;56610;48.872;2.400;2023-10-13T12:51:07;26.70;99.90
69418;DHT22;56610;48.872;2.400;2023-10-13T12:53:48;26.70;99.90
69418;DHT22;56610;48.872;2.400;2023-10-13T12:56:14;26.70;99.90
69418;DHT22;56610;48.872;2.400;2023-10-13T12:58:41;26.80;99.90
69418;DHT22;56610;48.872;2.400;2023-10-13T13:01:07;27.00;99.90
69418;DHT22;56610;48.872;2.400;2023-10-13T13:03:33;27.30;99.90
69418;DHT22;56610;48.872;2.400;2023-10-13T13:05:58;27.40;99.90
69418;DHT22;56610;48.872;2.400;2023-10-13T13:08:24;27.40;99.90
69418;DHT22;56610;48.872;2.400;2023-10-13T13:10:50;27.50;99.90
69418;DHT22;56610;48.872;2.400;2023-10-13T13:13:17;27.50;99.90
69418;DHT22;56610;48.872;2.400;2023-10-13T13:15:50;27.60;99.90
69418;DHT22;56610;48.872;2.400;2023-10-13T13:18:15;27.70;99.90
69418;DHT22;56610;48.872;2.400;2023-10-13T13:20:41;27.60;99.90
69418;DHT22;56610;48.872;2.400;2023-10-13T13:23:18;27.50;99.90
69418;DHT22;56610;48.872;2.400;2023-10-13T13:25:44;27.50;99.90
69418;DHT22;56610;48.872;2.400;2023-10-13T13:28:10;27.30;99.90
69418;DHT22;56610;48.872;2.400;2023-10-13T13:30:39;27.30;99.90
69418;DHT22;56610;48.872;2.400;2023-10-13T13:33:05;27.20;99.90
69418;DHT22;56610;48.872;2.400;2023-10-13T13:35:40;27.30;99.90
69418;DHT22;56610;48.872;2.400;2023-10-13T13:38:08;27.10;99.90
69418;DHT22;56610;48.872;2.400;2023-10-13T13:40:42;27.00;99.90
69418;DHT22;56610;48.872;2.400;2023-10-13T13:43:09;27.10;99.90
69418;DHT22;56610;48.872;2.400;2023-10-13T13:45:55;26.90;99.90
69418;DHT22;56610;48.872;2.400;2023-10-13T13:48:26;26.80;99.90
69418;DHT22;56610;48.872;2.400;2023-10-13T13:50:52;26.70;99.90
69418;DHT22;56610;48.872;2.400;2023-10-13T13:53:21;26.60;99.90
69418;DHT22;56610;48.872;2.400;2023-10-13T13:55:53;26.70;99.90
69418;DHT22;56610;48.872;2.400;2023-10-13T13:58:18;26.60;99.90
69418;DHT22;56610;48.872;2.400;2023-10-13T14:00:44;26.60;99.90
69418;DHT22;56610;48.872;2.400;2023-10-13T14:03:13;26.60;99.90
69418;DHT22;56610;48.872;2.400;2023-10-13T14:05:59;26.50;99.90
69418;DHT22;56610;48.872;2.400;2023-10-13T14:08:25;26.50;99.90
69418;DHT22;56610;48.872;2.400;2023-10-13T14:10:51;26.30;99.90
69418;DHT22;56610;48.872;2.400;2023-10-13T14:13:39;26.30;99.90
69418;DHT22;56610;48.872;2.400;2023-10-13T14:16:30;26.30;99.90
69418;DHT22;56610;48.872;2.400;2023-10-13T14:18:59;26.20;99.90
69418;DHT22;56610;48.872;2.400;2023-10-13T14:21:27;26.10;99.90
69418;DHT22;56610;48.872;2.400;2023-10-13T14:23:53;26.00;99.90
69418;DHT22;56610;48.872;2.400;2023-10-13T14:26:21;26.00;99.90
69418;DHT22;56610;48.872;2.400;2023-10-13T14:28:47;25.90;99.90
69418;DHT22;56610;48.872;2.400;2023-10-13T14:31:39;25.90;99.90
69418;DHT22;56610;48.872;2.400;2023-10-13T14:34:05;26.10;99.90
69418;DHT22;56610;48.872;2.400;2023-10-13T14:36:33;26.00;99.90
69418;DHT22;56610;48.872;2.400;2023-10-13T14:39:04;26.10;99.90
69418;DHT22;56610;48.872;2.400;2023-10-13T14:41:35;26.00;99.90
69418;DHT22;56610;48.872;2.400;2023-10-13T14:44:00;25.90;99.90
69418;DHT22;56610;48.872;2.400;2023-10-13T14:46:30;25.90;99.90
69418;DHT22;56610;48.872;2.400;2023-10-13T14:48:56;25.90;99.90
69418;DHT22;56610;48.872;2.400;2023-10-13T14:51:22;25.90;99.90
69418;DHT22;56610;48.872;2.400;2023-10-13T14:53:47;25.90;99.90
69418;DHT22;56610;48.872;2.400;2023-10-13T14:56:14;25.90;99.90
69418;DHT22;56610;48.872;2.400;2023-10-13T14:58:39;25.90;99.90
69418;DHT22;56610;48.872;2.400;2023-10-13T15:01:17;25.90;99.90
69418;DHT22;56610;48.872;2.400;2023-10-13T15:06:14;26.10;99.90
69418;DHT22;56610;48.872;2.400;2023-10-13T15:08:43;26.10;99.90
69418;DHT22;56610;48.872;2.400;2023-10-13T15:11:11;26.10;99.90
69418;DHT22;56610;48.872;2.400;2023-10-13T15:13:42;25.90;99.90
69418;DHT22;56610;48.872;2.400;2023-10-13T15:16:18;26.10;99.90
69418;DHT22;56610;48.872;2.400;2023-10-13T15:18:47;26.00;99.90
69418;DHT22;56610;48.872;2.400;2023-10-13T15:21:25;25.90;99.90
69418;DHT22;56610;48.872;2.400;2023-10-13T15:23:57;26.00;99.90
69418;DHT22;56610;48.872;2.400;2023-10-13T15:26:29;25.90;99.90
69418;DHT22;56610;48.872;2.400;2023-10-13T15:28:55;25.90;99.90
69418;DHT22;56610;48.872;2.400;2023-10-13T15:31:21;25.90;99.90
69418;DHT22;56610;48.872;2.400;2023-10-13T15:33:59;26.00;99.90
69418;DHT22;56610;48.872;2.400;2023-10-13T15:36:26;25.90;99.90
69418;DHT22;56610;48.872;2.400;2023-10-13T15:38:51;25.80;99.90
69418;DHT22;56610;48.872;2.400;2023-10-13T15:41:27;25.90;99.90
69418;DHT22;56610;48.872;2.400;2023-10-13T15:43:53;25.80;99.90
69418;DHT22;56610;48.872;2.400;2023-10-13T15:46:20;25.90;99.90
69418;DHT22;56610;48.872;2.400;2023-10-13T15:48:47;25.90;99.90
69418;DHT22;56610;48.872;2.400;2023-10-13T15:51:12;25.80;99.90
69418;DHT22;56610;48.872;2.400;2023-10-13T15:53:38;25.80;99.90
69418;DHT22;56610;48.872;2.400;2023-10-13T15:56:04;25.80;99.90
69418;DHT22;56610;48.872;2.400;2023-10-13T15:58:37;25.80;99.90
69418;DHT22;56610;48.872;2.400;2023-10-13T16:01:03;25.70;99.90
69418;DHT22;56610;48.872;2.400;2023-10-13T16:03:29;25.70;99.90
69418;DHT22;56610;48.872;2.400;2023-10-13T16:05:54;25.80;99.90
69418;DHT22;56610;48.872;2.400;2023-10-13T16:08:20;25.80;99.90
69418;DHT22;56610;48.872;2.400;2023-10-13T16:10:46;25.80;99.90
69418;DHT22;56610;48.872;2.400;2023-10-13T16:13:11;25.90;99.90
69418;DHT22;56610;48.872;2.400;2023-10-13T16:15:45;25.70;99.90
69418;DHT22;56610;48.872;2.400;2023-10-13T16:18:12;25.80;99.90
69418;DHT22;56610;48.872;2.400;2023-10-13T16:20:38;25.60;99.90
69418;DHT22;56610;48.872;2.400;2023-10-13T16:23:05;25.60;99.90
69418;DHT22;56610;48.872;2.400;2023-10-13T16:25:30;25.70;99.90
69418;DHT22;56610;48.872;2.400;2023-10-13T16:27:56;25.60;99.90
69418;DHT22;56610;48.872;2.400;2023-10-13T16:30:21;25.50;99.90
69418;DHT22;56610;48.872;2.400;2023-10-13T16:32:47;25.50;99.90